Time;durP1;ratioP1;P1;durP2;ratioP2;P2;SDS_P1;SDS_P2;PMS_P1;PMS_P2;Temp;Humidity;BMP_temperature;BMP_pressure;BME280_temperature;BME280_humidity;BME280_pressure;Samples;Min_cycle;Max_cycle;Signal;HPM_P1;HPM_P2
2022/01/04 19:19:16;;;;;;;4.15;1.73;;;;;;;5.89;81.24;98383.81;957320;39;52231;-83
2022/01/04 19:20:21;;;;;;;3.50;1.30;;;;;;;5.90;81.33;98386.31;1086933;54;20094;-80
2022/01/04 19:21:49;;;;;;;4.07;1.35;;;;;;;5.86;81.60;98384.97;1086976;54;20042;-79
2022/01/04 19:22:53;;;;;;;5.00;1.40;;;;;;;5.76;81.74;98398.31;1087280;54;20038;-79
2022/01/04 19:23:54;;;;;;;3.28;1.30;;;;;;;5.81;81.42;98397.03;1087225;54;20034;-77
2022/01/04 19:24:58;;;;;;;3.28;1.13;;;;;;;5.91;81.31;98395.13;1086860;54;20041;-80
2022/01/04 19:26:03;;;;;;;3.03;1.27;;;;;;;5.72;81.97;98402.28;1087066;54;20045;-80
2022/01/04 19:27:10;;;;;;;4.40;1.60;;;;;;;5.60;82.44;98404.34;1087174;54;20042;-78
2022/01/04 19:28:14;;;;;;;3.42;1.30;;;;;;;5.74;81.95;98405.63;1087110;54;20675;-81
2022/01/04 19:29:16;;;;;;;3.33;1.25;;;;;;;5.71;82.03;98394.50;1087213;54;20069;-79
2022/01/04 19:30:21;;;;;;;3.88;1.52;;;;;;;5.68;82.11;98403.56;1087143;54;20030;-79
2022/01/04 19:31:25;;;;;;;3.35;1.70;;;;;;;5.68;82.19;98400.91;1087019;54;20061;-79
2022/01/04 19:32:57;;;;;;;4.10;1.67;;;;;;;5.62;82.43;98404.19;1087166;54;20870;-80
2022/01/04 19:36:34;;;;;;;3.58;1.73;;;;;;;5.58;83.27;98413.41;1087242;54;20034;-79
2022/01/04 19:37:38;;;;;;;3.78;1.60;;;;;;;5.65;82.77;98411.00;1087048;54;20038;-80
2022/01/04 19:38:39;;;;;;;3.67;1.60;;;;;;;5.76;82.45;98416.88;1087156;54;20042;-80
2022/01/04 19:39:43;;;;;;;3.17;1.40;;;;;;;5.72;82.37;98420.84;1087444;54;20030;-80
2022/01/04 19:40:46;;;;;;;3.90;1.50;;;;;;;5.76;82.45;98414.22;1087259;54;20038;-80
2022/01/04 19:41:50;;;;;;;3.72;1.70;;;;;;;5.73;82.49;98417.22;1087360;54;20045;-78
2022/01/04 19:44:31;;;;;;;5.13;1.80;;;;;;;5.44;83.34;98420.09;1087000;54;20034;-78
2022/01/04 19:45:33;;;;;;;3.72;1.63;;;;;;;5.56;83.05;98415.41;1087353;54;20035;-77
2022/01/04 19:46:38;;;;;;;4.15;1.80;;;;;;;5.55;82.94;98416.38;1086974;54;20042;-79
2022/01/04 19:47:47;;;;;;;2.67;1.38;;;;;;;5.69;82.83;98415.00;1087257;54;20046;-80
2022/01/04 19:49:09;;;;;;;4.60;1.20;;;;;;;5.74;82.72;98416.22;1087131;54;20098;-80
2022/01/04 19:50:28;;;;;;;3.97;1.50;;;;;;;5.77;82.01;98415.91;1086797;54;20046;-79
2022/01/04 19:51:38;;;;;;;3.13;1.30;;;;;;;5.66;82.24;98413.50;1086984;54;20041;-80
2022/01/04 19:52:42;;;;;;;3.08;1.25;;;;;;;5.67;82.03;98415.16;1087704;54;20060;-78
2022/01/04 19:53:48;;;;;;;3.17;1.30;;;;;;;5.66;81.93;98418.81;1087762;46;20027;-80
2022/01/04 19:54:52;;;;;;;2.80;1.20;;;;;;;5.62;82.28;98417.44;1087495;54;20047;-79
2022/01/04 19:55:56;;;;;;;2.53;1.10;;;;;;;5.68;81.90;98414.16;1087631;46;20076;-79
2022/01/04 19:57:00;;;;;;;3.05;1.15;;;;;;;5.70;82.07;98414.84;1087699;54;20036;-79
2022/01/04 19:58:02;;;;;;;2.80;1.15;;;;;;;5.75;81.69;98419.69;1087689;54;20588;-78
2022/01/04 19:59:06;;;;;;;3.20;1.17;;;;;;;5.76;81.88;98419.53;1087698;54;20120;-78
2022/01/04 20:00:09;;;;;;;2.22;0.95;;;;;;;5.69;82.35;98418.50;1087485;54;20861;-79
2022/01/04 20:01:14;;;;;;;3.55;1.52;;;;;;;5.54;82.75;98422.69;1087410;54;20057;-78
2022/01/04 20:02:18;;;;;;;3.85;1.42;;;;;;;5.53;82.71;98423.66;1087374;54;20039;-78
2022/01/04 20:03:21;;;;;;;3.38;1.55;;;;;;;5.66;82.35;98424.13;1087881;39;20650;-79
2022/01/04 20:04:25;;;;;;;3.38;1.40;;;;;;;5.69;82.05;98423.78;1087587;54;20905;-79
2022/01/04 20:05:26;;;;;;;3.00;1.13;;;;;;;5.67;82.12;98417.81;1087503;54;20030;-80
2022/01/04 20:06:32;;;;;;;2.75;1.13;;;;;;;5.62;82.29;98417.44;1087371;54;20039;-79
2022/01/04 20:07:40;;;;;;;3.25;1.30;;;;;;;5.68;81.73;98416.00;1087631;54;20057;-80
2022/01/04 20:08:45;;;;;;;3.88;1.52;;;;;;;5.57;82.49;98420.56;1087471;54;20644;-79
2022/01/04 20:09:49;;;;;;;2.45;0.95;;;;;;;5.57;82.20;98423.19;1090506;39;20678;-80
2022/01/04 20:10:53;;;;;;;3.55;1.40;;;;;;;5.36;82.92;98422.66;1087274;54;20022;-81
2022/01/04 20:11:57;;;;;;;2.80;1.17;;;;;;;5.29;83.23;98417.97;1087221;54;20034;-80
2022/01/04 20:13:02;;;;;;;3.72;1.60;;;;;;;5.35;83.09;98411.25;1088554;39;21080;-79
2022/01/04 20:14:06;;;;;;;3.05;1.05;;;;;;;5.36;82.79;98423.50;1087118;54;20038;-79
2022/01/04 20:15:09;;;;;;;2.92;1.17;;;;;;;5.44;82.54;98420.09;1085746;54;20073;-79
2022/01/04 20:16:14;;;;;;;3.38;1.42;;;;;;;5.26;83.10;98414.81;1086264;54;20037;-78
2022/01/04 20:17:16;;;;;;;2.85;1.02;;;;;;;5.40;82.75;98427.50;1087399;54;20651;-81
2022/01/04 20:18:20;;;;;;;3.28;1.20;;;;;;;5.44;82.39;98425.38;1087496;54;20035;-80
2022/01/04 20:19:25;;;;;;;3.40;1.30;;;;;;;5.42;82.55;98422.09;1088109;39;20539;-78
2022/01/04 20:20:30;;;;;;;2.88;1.10;;;;;;;5.47;82.14;98425.94;1087299;54;20094;-79
2022/01/04 20:21:35;;;;;;;3.15;1.25;;;;;;;5.53;82.39;98427.13;1087309;54;20062;-79
2022/01/04 20:22:52;;;;;;;4.10;0.95;;;;;;;5.41;82.46;98423.88;1087277;54;20054;-80
2022/01/04 20:23:54;;;;;;;3.78;1.40;;;;;;;5.43;82.34;98431.69;1087317;54;20034;-78
2022/01/04 20:24:59;;;;;;;2.53;1.08;;;;;;;5.37;82.33;98426.97;1087218;54;20037;-78
2022/01/04 20:26:03;;;;;;;3.42;1.20;;;;;;;5.35;82.53;98421.84;1087281;54;20030;-79
2022/01/04 20:27:05;;;;;;;2.95;1.20;;;;;;;5.24;82.58;98424.72;1087218;54;20038;-79
2022/01/04 20:28:09;;;;;;;4.03;1.45;;;;;;;5.27;82.71;98429.72;1086930;54;20734;-77
2022/01/04 20:29:13;;;;;;;2.88;1.23;;;;;;;5.36;82.56;98423.50;1087207;54;20030;-78
2022/01/04 20:30:16;;;;;;;2.95;1.20;;;;;;;5.49;82.27;98432.88;1087261;54;20042;-77
2022/01/04 20:31:20;;;;;;;2.55;1.00;;;;;;;5.53;81.85;98434.25;1087307;54;20034;-78
2022/01/04 20:32:22;;;;;;;2.80;0.90;;;;;;;5.50;81.92;98426.59;1087113;54;20581;-78
2022/01/04 20:33:26;;;;;;;2.50;0.80;;;;;;;5.55;81.81;98424.34;1087291;54;20030;-79
2022/01/04 20:34:28;;;;;;;2.63;1.02;;;;;;;5.58;81.59;98426.66;1087307;54;20042;-78
2022/01/04 20:35:34;;;;;;;1.90;0.80;;;;;;;5.54;81.78;98420.03;1087149;54;20030;-78
2022/01/04 20:36:39;;;;;;;3.00;1.10;;;;;;;5.54;81.62;98412.06;1087227;54;20058;-78
2022/01/04 20:37:47;;;;;;;2.33;0.98;;;;;;;5.55;81.66;98422.50;1087394;54;20042;-78
2022/01/04 20:38:51;;;;;;;2.90;1.10;;;;;;;5.54;81.36;98412.88;1088404;46;20098;-77
2022/01/04 20:39:53;;;;;;;2.97;1.08;;;;;;;5.50;81.77;98418.66;1087277;54;20038;-79
2022/01/04 20:40:58;;;;;;;2.60;0.90;;;;;;;5.46;81.55;98418.13;1087146;54;20042;-77
2022/01/04 20:41:59;;;;;;;2.63;0.90;;;;;;;5.55;81.35;98416.38;1087137;54;20038;-78
2022/01/04 20:43:03;;;;;;;2.80;1.00;;;;;;;5.57;81.36;98414.44;1087531;54;20034;-78
2022/01/04 20:44:08;;;;;;;2.22;1.00;;;;;;;5.61;81.31;98410.47;1087545;54;20035;-78
2022/01/04 20:45:13;;;;;;;2.47;1.13;;;;;;;5.53;81.52;98413.06;1087595;54;20084;-77
2022/01/04 20:46:17;;;;;;;4.15;1.40;;;;;;;5.42;81.84;98412.31;1087475;54;20053;-78
2022/01/04 20:47:19;;;;;;;2.85;1.10;;;;;;;5.48;81.57;98410.84;1087385;54;20038;-79
2022/01/04 20:48:23;;;;;;;2.80;1.02;;;;;;;5.54;81.55;98417.38;1087545;54;20027;-79
2022/01/04 20:49:30;;;;;;;3.63;1.40;;;;;;;5.31;81.67;98420.47;1087602;54;20045;-79
2022/01/04 20:50:32;;;;;;;3.45;1.50;;;;;;;5.40;81.79;98414.25;1087511;54;20035;-79
2022/01/04 20:51:36;;;;;;;2.90;1.27;;;;;;;5.28;81.93;98405.72;1087509;54;20065;-79
2022/01/04 20:52:43;;;;;;;3.75;1.60;;;;;;;5.37;81.58;98413.72;1087595;54;20050;-79
2022/01/04 20:53:50;;;;;;;2.92;1.30;;;;;;;5.47;81.49;98407.41;1087505;54;20038;-79
2022/01/04 20:54:51;;;;;;;3.75;1.55;;;;;;;5.47;81.47;98420.66;1089998;39;20663;-79
2022/01/04 20:55:57;;;;;;;2.72;1.00;;;;;;;5.45;81.21;98405.84;1087238;54;20123;-79
2022/01/04 20:56:58;;;;;;;3.95;1.33;;;;;;;5.50;81.00;98408.91;1087238;54;20035;-79
2022/01/04 20:58:03;;;;;;;3.40;1.50;;;;;;;5.35;81.65;98407.75;1087267;54;21008;-79
2022/01/04 20:59:04;;;;;;;2.78;1.13;;;;;;;5.36;81.83;98402.31;1087222;54;20023;-80
2022/01/04 21:00:11;;;;;;;3.20;1.20;;;;;;;5.39;81.60;98401.16;1087127;54;20605;-79
2022/01/04 21:01:15;;;;;;;4.40;1.13;;;;;;;5.42;81.54;98400.88;1087121;54;20074;-79
2022/01/04 21:02:17;;;;;;;3.15;1.20;;;;;;;5.36;81.47;98402.31;1087105;54;20038;-78
2022/01/04 21:03:21;;;;;;;3.20;1.30;;;;;;;5.35;81.70;98397.16;1088015;46;20041;-79
2022/01/04 21:04:22;;;;;;;4.15;1.20;;;;;;;5.31;81.58;98394.81;1087327;54;20038;-78
2022/01/04 21:05:30;;;;;;;3.05;1.00;;;;;;;5.31;81.72;98399.28;1087072;54;20042;-79
2022/01/04 21:06:34;;;;;;;3.33;1.13;;;;;;;5.24;82.05;98398.22;1087140;54;20038;-79
2022/01/04 21:07:38;;;;;;;2.70;1.00;;;;;;;5.33;81.55;98392.00;1087082;54;20644;-79
2022/01/04 21:08:43;;;;;;;3.22;1.20;;;;;;;5.35;81.44;98395.34;1087058;54;20046;-80
2022/01/04 21:09:47;;;;;;;2.72;0.90;;;;;;;5.40;81.53;98393.06;1087243;54;20058;-79
2022/01/04 21:10:51;;;;;;;2.53;1.00;;;;;;;5.42;81.46;98396.41;1086958;54;20059;-80
2022/01/04 21:11:55;;;;;;;4.43;1.20;;;;;;;5.33;81.49;98397.31;1087012;54;20061;-79
2022/01/04 21:12:57;;;;;;;2.65;1.02;;;;;;;5.37;81.75;98396.03;1086993;54;20062;-80
2022/01/04 21:14:01;;;;;;;2.95;1.17;;;;;;;5.16;82.24;98401.59;1087590;39;20634;-80
2022/01/04 21:15:03;;;;;;;3.13;1.20;;;;;;;5.19;82.02;98408.44;1086886;54;20030;-77
2022/01/04 21:16:07;;;;;;;2.53;0.98;;;;;;;5.11;82.52;98409.19;1087000;54;20047;-78
2022/01/04 21:17:09;;;;;;;3.42;1.20;;;;;;;5.12;82.41;98401.06;1086834;54;20034;-81
2022/01/04 21:18:14;;;;;;;2.88;1.10;;;;;;;5.04;82.70;98398.34;1086813;54;20037;-78
2022/01/04 21:19:15;;;;;;;3.80;1.38;;;;;;;5.02;82.89;98397.66;1086656;54;20065;-78
2022/01/04 21:20:20;;;;;;;3.90;1.50;;;;;;;5.04;82.87;98398.34;1086773;54;20290;-79
2022/01/04 21:21:22;;;;;;;3.13;1.30;;;;;;;5.02;82.78;98392.38;1086947;54;20038;-78
2022/01/04 21:22:26;;;;;;;3.35;1.40;;;;;;;5.01;83.12;98393.34;1088706;39;20529;-79
2022/01/04 21:23:30;;;;;;;3.40;1.23;;;;;;;5.03;82.59;98391.38;1086948;54;20053;-78
2022/01/04 21:24:32;;;;;;;3.35;1.35;;;;;;;5.24;82.48;98390.25;1086787;54;20038;-80
2022/01/04 21:25:39;;;;;;;3.53;1.42;;;;;;;5.32;81.99;98390.34;1087822;39;20272;-78
2022/01/04 21:26:41;;;;;;;3.08;1.38;;;;;;;5.38;81.73;98389.75;1086685;54;20054;-78
2022/01/04 21:27:45;;;;;;;3.28;1.20;;;;;;;5.19;82.05;98397.84;1086824;54;20042;-79
2022/01/04 21:28:47;;;;;;;2.63;1.20;;;;;;;5.26;81.93;98396.25;1086775;54;20038;-79
2022/01/04 21:29:51;;;;;;;3.22;1.23;;;;;;;5.33;81.68;98405.25;1086637;54;20126;-80
2022/01/04 21:30:56;;;;;;;2.95;1.33;;;;;;;5.36;81.73;98396.16;1086313;54;20042;-79
2022/01/04 21:31:57;;;;;;;3.05;1.20;;;;;;;5.40;81.60;98397.53;1087078;39;20569;-78
2022/01/04 21:33:01;;;;;;;3.40;1.30;;;;;;;5.27;81.90;98389.97;1086248;54;20049;-80
2022/01/04 21:34:04;;;;;;;3.22;1.33;;;;;;;5.26;82.22;98391.78;1086227;54;20065;-79
2022/01/04 21:35:11;;;;;;;3.08;1.20;;;;;;;5.19;82.28;98390.72;1086093;54;20039;-78
2022/01/04 21:36:15;;;;;;;3.05;1.30;;;;;;;5.33;81.98;98399.13;1086647;54;20038;-78
2022/01/04 21:37:17;;;;;;;4.45;1.50;;;;;;;5.38;82.03;98395.06;1086014;54;20030;-79
2022/01/04 21:38:21;;;;;;;3.58;1.15;;;;;;;5.32;82.16;98411.53;1086392;39;20551;-80
2022/01/04 21:39:23;;;;;;;6.50;3.55;;;;;;;5.28;82.18;98402.25;1086142;54;20065;-80
2022/01/04 21:40:27;;;;;;;4.43;2.05;;;;;;;5.21;82.42;98404.66;1086009;54;20035;-80
2022/01/04 21:41:31;;;;;;;4.55;2.30;;;;;;;5.25;82.46;98402.53;1085718;54;20061;-78
2022/01/04 21:42:35;;;;;;;4.15;1.30;;;;;;;5.31;82.23;98400.13;1085828;54;20070;-77
2022/01/04 21:43:39;;;;;;;2.83;1.10;;;;;;;5.32;82.38;98408.88;1085741;54;20073;-78
2022/01/04 21:44:41;;;;;;;3.65;1.40;;;;;;;5.42;82.33;98407.00;1085563;54;20038;-77
2022/01/04 21:45:45;;;;;;;3.15;1.30;;;;;;;5.25;82.54;98407.84;1086190;54;20039;-79
2022/01/04 21:46:47;;;;;;;3.15;1.20;;;;;;;5.26;82.62;98401.56;1086209;54;20069;-82
2022/01/04 21:47:51;;;;;;;3.28;1.45;;;;;;;5.40;82.28;98408.97;1086368;54;20046;-78
2022/01/04 21:48:53;;;;;;;5.15;1.40;;;;;;;5.44;82.08;98394.44;1086818;54;20057;-83
2022/01/04 21:49:58;;;;;;;3.42;1.33;;;;;;;5.52;82.31;98398.13;1086922;39;20437;-79
2022/01/04 21:51:08;;;;;;;2.75;1.33;;;;;;;5.51;82.06;98384.06;1085502;47;20030;-78
2022/01/04 21:52:10;;;;;;;2.92;1.20;;;;;;;5.59;81.85;98385.94;1085605;54;20069;-80
2022/01/04 21:53:15;;;;;;;2.80;1.20;;;;;;;5.71;81.60;98386.53;1086064;39;20528;-80
2022/01/04 21:54:17;;;;;;;2.72;1.00;;;;;;;5.78;81.40;98383.09;1085288;54;20044;-79
2022/01/04 21:55:21;;;;;;;3.00;1.20;;;;;;;5.78;81.14;98372.47;1088485;31;20501;-79
2022/01/04 21:56:25;;;;;;;3.75;1.40;;;;;;;5.80;81.03;98371.50;1084666;54;20089;-80
2022/01/04 21:57:32;;;;;;;2.95;1.08;;;;;;;5.80;80.83;98367.03;1085836;39;20461;-79
2022/01/04 21:58:36;;;;;;;2.63;1.00;;;;;;;5.87;80.75;98367.22;1085511;54;20042;-79
2022/01/04 21:59:38;;;;;;;2.80;0.85;;;;;;;5.87;80.68;98368.09;1085643;54;20549;-79
2022/01/04 22:00:42;;;;;;;3.85;1.42;;;;;;;5.92;80.70;98370.25;1085349;54;20034;-79
2022/01/04 22:01:46;;;;;;;2.80;1.20;;;;;;;5.94;80.82;98368.28;1086328;54;20046;-78
2022/01/04 22:02:51;;;;;;;3.65;1.38;;;;;;;5.86;81.13;98366.41;1086277;54;20046;-81
2022/01/04 22:03:53;;;;;;;3.30;1.20;;;;;;;5.88;80.83;98358.28;1085533;54;20065;-79
2022/01/04 22:04:57;;;;;;;3.17;1.33;;;;;;;5.89;80.78;98360.81;1085367;54;20577;-79
2022/01/04 22:06:02;;;;;;;2.17;0.80;;;;;;;5.95;80.74;98362.00;1085340;54;20038;-78
2022/01/04 22:07:06;;;;;;;2.42;1.10;;;;;;;5.94;80.71;98360.34;1085144;54;20090;-79
2022/01/04 22:08:09;;;;;;;2.45;1.00;;;;;;;5.97;80.59;98360.00;1086590;54;20026;-77
2022/01/04 22:09:13;;;;;;;2.35;0.93;;;;;;;5.99;80.34;98358.06;1086916;54;20043;-77
2022/01/04 22:10:15;;;;;;;2.60;0.90;;;;;;;5.86;80.56;98360.25;1085362;54;20042;-79
2022/01/04 22:11:20;;;;;;;2.50;0.90;;;;;;;5.91;80.68;98365.94;1086840;39;20545;-78
2022/01/04 22:12:24;;;;;;;1.83;0.70;;;;;;;5.97;80.39;98367.97;1087269;39;20548;-79
2022/01/04 22:13:30;;;;;;;2.40;0.80;;;;;;;5.87;80.47;98362.78;1086281;54;20042;-80
2022/01/04 22:14:35;;;;;;;1.90;0.77;;;;;;;5.85;80.60;98363.94;1086284;54;20062;-79
2022/01/04 22:15:39;;;;;;;2.30;0.80;;;;;;;5.90;80.55;98353.66;1086831;47;20035;-79
2022/01/04 22:16:41;;;;;;;2.60;0.80;;;;;;;5.91;80.40;98352.69;1085595;54;20554;-80
2022/01/04 22:17:45;;;;;;;2.60;0.93;;;;;;;5.91;80.16;98350.84;1085726;54;20050;-80
2022/01/04 22:18:54;;;;;;;2.28;0.80;;;;;;;5.80;80.48;98356.44;1086575;47;20054;-81
2022/01/04 22:19:58;;;;;;;3.05;1.10;;;;;;;5.73;80.76;98360.69;1085299;54;20063;-78
2022/01/04 22:21:00;;;;;;;2.97;1.20;;;;;;;5.60;80.95;98371.69;1085073;54;20027;-77
2022/01/04 22:22:04;;;;;;;4.15;1.42;;;;;;;5.46;81.79;98368.63;1085031;54;20035;-81
2022/01/04 22:23:08;;;;;;;2.78;1.08;;;;;;;5.67;81.36;98367.41;1085731;54;20049;-79
2022/01/04 22:24:10;;;;;;;3.22;1.17;;;;;;;5.61;81.16;98368.06;1085769;54;20037;-78
2022/01/04 22:25:20;;;;;;;4.22;1.50;;;;;;;5.70;81.10;98369.78;1085614;54;20043;-80
2022/01/04 22:26:22;;;;;;;3.03;1.23;;;;;;;5.68;81.04;98360.31;1087522;31;20518;-79
2022/01/04 22:27:32;;;;;;;3.90;1.77;;;;;;;5.70;81.31;98364.47;1085827;54;20107;-80
2022/01/04 22:28:36;;;;;;;3.17;1.30;;;;;;;5.73;80.88;98350.06;1086486;54;20038;-80
2022/01/04 22:29:42;;;;;;;3.70;1.38;;;;;;;5.78;80.84;98345.16;1086721;47;20054;-80
2022/01/04 22:30:44;;;;;;;3.90;1.80;;;;;;;5.69;81.04;98351.38;1085385;54;20035;-79
2022/01/04 22:31:50;;;;;;;3.75;1.98;;;;;;;5.62;81.29;98359.13;1085359;54;20034;-79
2022/01/04 22:32:55;;;;;;;4.68;1.77;;;;;;;5.69;81.09;98360.16;1085520;54;20042;-77
2022/01/04 22:33:59;;;;;;;3.13;1.45;;;;;;;5.76;80.82;98365.69;1085940;39;20470;-78
2022/01/04 22:35:05;;;;;;;3.97;1.60;;;;;;;5.78;80.97;98361.88;1085544;47;20065;-77
2022/01/04 22:36:09;;;;;;;4.10;1.67;;;;;;;5.70;81.31;98372.44;1084328;47;20035;-78
2022/01/04 22:37:14;;;;;;;3.70;1.58;;;;;;;5.63;81.24;98374.84;1084367;54;20039;-78
2022/01/04 22:38:18;;;;;;;3.60;1.67;;;;;;;5.69;81.19;98380.53;1084863;54;20059;-78
2022/01/04 22:39:20;;;;;;;6.00;1.67;;;;;;;5.78;80.91;98384.94;1084979;47;20635;-80
2022/01/04 22:40:24;;;;;;;3.70;1.63;;;;;;;5.77;80.90;98385.91;1085489;54;20026;-78
2022/01/04 22:41:25;;;;;;;3.38;1.40;;;;;;;5.78;81.14;98384.94;1084070;54;20054;-79
2022/01/04 22:42:30;;;;;;;4.20;1.80;;;;;;;5.75;81.13;98386.06;1084379;54;20049;-78
2022/01/04 22:43:32;;;;;;;3.30;1.40;;;;;;;5.85;80.76;98385.16;1084966;54;20039;-79
2022/01/04 22:44:39;;;;;;;3.22;1.48;;;;;;;5.78;81.02;98383.09;1085991;54;20069;-79
2022/01/04 22:45:41;;;;;;;4.22;1.50;;;;;;;5.85;80.93;98372.69;1086276;54;20031;-81
2022/01/04 22:46:49;;;;;;;4.18;1.58;;;;;;;5.81;80.93;98373.16;1086851;54;20039;-79
2022/01/04 22:47:50;;;;;;;3.75;1.52;;;;;;;5.84;80.68;98373.69;1085661;54;20069;-81
2022/01/04 22:49:02;;;;;;;3.88;1.85;;;;;;;5.86;80.97;98371.72;1086283;39;20532;-80
2022/01/04 22:50:08;;;;;;;4.47;1.80;;;;;;;5.92;80.37;98363.13;1085395;54;20034;-79
2022/01/04 22:51:09;;;;;;;3.83;1.60;;;;;;;5.93;80.35;98366.63;1085277;54;20030;-80
2022/01/04 22:52:13;;;;;;;4.22;1.73;;;;;;;5.97;80.22;98370.63;1085332;54;20038;-81
2022/01/04 22:53:17;;;;;;;4.28;2.00;;;;;;;5.84;80.67;98362.25;1085161;54;20066;-79
2022/01/04 22:54:21;;;;;;;4.78;2.10;;;;;;;5.94;80.65;98360.34;1085438;54;20034;-81
2022/01/04 22:55:26;;;;;;;4.47;1.90;;;;;;;5.94;80.62;98360.34;1086020;54;20069;-79
2022/01/04 22:56:27;;;;;;;4.63;1.92;;;;;;;5.94;80.37;98358.50;1087198;54;20065;-77
2022/01/04 22:57:31;;;;;;;5.90;1.88;;;;;;;5.99;80.40;98355.41;1087127;54;20037;-78
2022/01/04 22:58:33;;;;;;;3.67;1.73;;;;;;;5.99;80.35;98359.88;1087022;54;20952;-77
2022/01/04 22:59:40;;;;;;;4.18;2.10;;;;;;;6.05;80.27;98356.59;1087986;31;20682;-78
2022/01/04 23:00:44;;;;;;;4.55;1.73;;;;;;;5.98;80.28;98361.66;1086885;54;20042;-77
2022/01/04 23:01:45;;;;;;;3.88;1.50;;;;;;;5.97;80.42;98365.31;1088430;46;20035;-79
2022/01/04 23:02:52;;;;;;;3.50;1.70;;;;;;;6.04;80.15;98366.41;1087109;54;20065;-77
2022/01/04 23:03:56;;;;;;;3.60;1.50;;;;;;;6.04;80.16;98363.75;1087019;54;20046;-77
2022/01/04 23:04:57;;;;;;;3.90;1.60;;;;;;;6.11;80.08;98363.09;1088952;39;20521;-79
2022/01/04 23:06:01;;;;;;;3.90;1.70;;;;;;;6.10;80.10;98378.19;1087088;54;20062;-77
2022/01/04 23:07:09;;;;;;;4.47;1.85;;;;;;;6.09;80.22;98361.44;1086636;54;20042;-79
2022/01/04 23:08:13;;;;;;;3.35;1.58;;;;;;;6.17;79.87;98363.31;1085617;54;20061;-80
2022/01/04 23:09:18;;;;;;;3.05;1.30;;;;;;;6.11;80.20;98357.81;1085363;54;20039;-80
2022/01/04 23:10:25;;;;;;;3.40;1.75;;;;;;;6.06;80.38;98359.09;1085413;54;20050;-79
2022/01/04 23:11:29;;;;;;;3.80;1.60;;;;;;;6.10;79.90;98351.66;1085296;54;20052;-79
2022/01/04 23:12:30;;;;;;;3.28;1.50;;;;;;;6.17;80.12;98344.75;1085459;54;20026;-78
2022/01/04 23:13:35;;;;;;;3.58;1.67;;;;;;;6.21;80.12;98351.38;1085265;54;20035;-80
2022/01/04 23:14:40;;;;;;;3.40;1.50;;;;;;;6.26;79.96;98340.28;1085550;31;20572;-79
2022/01/04 23:15:44;;;;;;;3.17;1.40;;;;;;;6.21;79.62;98337.28;1084223;54;20065;-78
2022/01/04 23:16:46;;;;;;;3.58;1.55;;;;;;;6.23;79.67;98341.44;1084824;31;20494;-79
2022/01/04 23:17:50;;;;;;;3.35;1.52;;;;;;;6.29;79.52;98344.44;1084869;54;20131;-82
2022/01/04 23:18:52;;;;;;;2.63;1.20;;;;;;;6.33;79.51;98349.28;1086367;54;20061;-80
2022/01/04 23:19:56;;;;;;;2.67;1.27;;;;;;;6.32;79.15;98349.44;1084724;54;20146;-78
2022/01/04 23:20:58;;;;;;;3.10;1.30;;;;;;;6.36;79.33;98353.47;1085329;31;20430;-79
2022/01/04 23:22:02;;;;;;;2.95;1.30;;;;;;;6.33;79.48;98354.59;1084396;54;20041;-78
2022/01/04 23:23:04;;;;;;;3.25;1.25;;;;;;;6.30;79.54;98357.56;1084919;47;20034;-78
2022/01/04 23:24:09;;;;;;;2.78;1.30;;;;;;;6.36;79.25;98350.81;1084616;54;20039;-82
2022/01/04 23:25:11;;;;;;;2.60;0.90;;;;;;;6.41;79.35;98356.44;1084243;54;20054;-77
2022/01/04 23:26:21;;;;;;;3.15;1.40;;;;;;;6.36;79.32;98356.94;1084558;54;20037;-77
2022/01/04 23:27:25;;;;;;;3.00;1.25;;;;;;;6.34;79.20;98356.25;1085343;54;20039;-79
2022/01/04 23:28:27;;;;;;;3.60;1.48;;;;;;;6.27;79.19;98346.44;1084275;54;20070;-77
2022/01/04 23:29:31;;;;;;;3.53;1.52;;;;;;;6.25;79.77;98346.59;1083820;54;20038;-80
2022/01/04 23:30:39;;;;;;;2.97;1.58;;;;;;;6.23;79.34;98343.28;1085278;54;20038;-78
2022/01/04 23:31:40;;;;;;;2.97;1.42;;;;;;;6.29;79.48;98347.94;1086943;39;20417;-78
2022/01/04 23:32:49;;;;;;;3.25;1.17;;;;;;;6.34;78.97;98336.84;1086429;54;20038;-82
2022/01/04 23:33:50;;;;;;;2.85;1.15;;;;;;;6.21;79.35;98334.66;1085915;54;20119;-79
2022/01/04 23:34:55;;;;;;;3.20;1.40;;;;;;;6.29;79.55;98344.44;1084633;54;20129;-79
2022/01/04 23:35:56;;;;;;;3.45;1.50;;;;;;;6.19;79.58;98337.44;1084650;54;20073;-80
2022/01/04 23:37:00;;;;;;;3.65;1.15;;;;;;;6.18;79.68;98340.25;1084188;54;20034;-79
2022/01/04 23:38:04;;;;;;;3.22;1.48;;;;;;;6.11;79.54;98336.56;1083666;54;20072;-78
2022/01/04 23:39:08;;;;;;;3.28;1.42;;;;;;;6.17;79.55;98330.63;1084270;54;20050;-79
2022/01/04 23:40:10;;;;;;;3.42;1.40;;;;;;;6.07;79.67;98328.94;1083742;54;20073;-80
2022/01/04 23:41:14;;;;;;;3.25;1.40;;;;;;;6.08;80.05;98341.22;1083711;54;20035;-80
2022/01/04 23:42:16;;;;;;;3.47;1.38;;;;;;;5.94;80.08;98339.13;1083354;54;20050;-80
2022/01/04 23:43:20;;;;;;;3.70;1.50;;;;;;;6.04;80.05;98342.53;1083983;54;20616;-79
2022/01/04 23:44:22;;;;;;;3.88;1.50;;;;;;;6.15;79.97;98329.94;1085362;54;20093;-78
2022/01/04 23:45:26;;;;;;;3.15;1.40;;;;;;;6.16;79.74;98342.22;1086290;54;20111;-77
2022/01/04 23:46:30;;;;;;;2.75;1.20;;;;;;;6.03;79.71;98343.50;1085967;54;20046;-77
2022/01/04 23:47:35;;;;;;;4.03;1.42;;;;;;;6.11;79.94;98347.19;1086211;54;20038;-77
2022/01/04 23:48:39;;;;;;;3.38;1.45;;;;;;;6.11;79.58;98347.19;1086586;39;20517;-77
2022/01/04 23:49:41;;;;;;;3.20;1.40;;;;;;;6.01;79.98;98347.28;1085022;54;20069;-76
2022/01/04 23:50:45;;;;;;;3.35;1.60;;;;;;;5.99;80.27;98344.81;1085868;54;20050;-76
2022/01/04 23:51:46;;;;;;;3.30;1.45;;;;;;;6.03;80.39;98346.16;1085256;54;20061;-76
2022/01/04 23:52:50;;;;;;;3.40;1.48;;;;;;;5.91;80.50;98344.72;1085079;54;20061;-77
2022/01/04 23:53:52;;;;;;;3.60;1.30;;;;;;;6.09;80.06;98337.56;1085767;54;20042;-76
2022/01/04 23:54:56;;;;;;;3.15;1.40;;;;;;;6.13;79.75;98330.13;1085104;54;20038;-77
2022/01/04 23:55:57;;;;;;;2.58;1.10;;;;;;;6.13;79.41;98335.44;1084735;54;20050;-78
2022/01/04 23:57:02;;;;;;;3.00;1.20;;;;;;;6.15;79.58;98335.25;1085922;54;20031;-77
2022/01/04 23:58:03;;;;;;;3.22;1.40;;;;;;;6.14;79.56;98315.06;1084863;54;20038;-79
2022/01/04 23:59:07;;;;;;;2.75;1.00;;;;;;;6.23;79.07;98316.75;1084557;54;20569;-79
